createdAt,value
2022-10-17T00:01:08.615Z,14.56
2022-10-17T00:03:36.379Z,14.57
2022-10-17T00:06:11.513Z,14.59
2022-10-17T00:08:41.325Z,14.60
2022-10-17T00:11:12.202Z,14.67
2022-10-17T00:13:38.732Z,14.66
2022-10-17T00:16:05.691Z,14.68
2022-10-17T00:18:32.224Z,14.66
2022-10-17T00:20:58.763Z,14.67
2022-10-17T00:23:27.794Z,14.67
2022-10-17T00:26:01.898Z,14.68
2022-10-17T00:28:28.624Z,14.73
2022-10-17T00:31:01.833Z,14.69
2022-10-17T00:33:29.094Z,14.69
2022-10-17T00:36:16.513Z,14.71
2022-10-17T00:38:45.102Z,14.74
2022-10-17T00:41:14.148Z,14.72
2022-10-17T00:43:57.290Z,14.71
2022-10-17T00:46:27.144Z,14.74
2022-10-17T00:48:55.179Z,14.75
2022-10-17T00:51:29.659Z,14.68
2022-10-17T00:53:56.644Z,14.67
2022-10-17T00:56:23.379Z,14.75
2022-10-17T00:58:50.027Z,14.69
2022-10-17T01:01:16.631Z,14.74
2022-10-17T01:03:43.445Z,14.75
2022-10-17T01:06:10.001Z,14.82
2022-10-17T01:08:36.587Z,14.84
2022-10-17T01:11:19.783Z,14.86
2022-10-17T01:13:51.083Z,14.85
2022-10-17T01:16:49.093Z,14.84
2022-10-17T01:19:35.172Z,14.81
2022-10-17T01:22:09.977Z,14.76
2022-10-17T01:25:06.921Z,14.77
2022-10-17T01:27:55.069Z,14.76
2022-10-17T01:30:58.626Z,14.74
2022-10-17T01:33:49.048Z,14.73
2022-10-17T01:36:23.347Z,14.72
2022-10-17T01:38:53.860Z,14.70
2022-10-17T01:41:28.853Z,14.63
2022-10-17T01:44:04.283Z,14.65
2022-10-17T01:46:38.454Z,14.64
2022-10-17T01:49:07.035Z,14.60
2022-10-17T01:51:38.186Z,14.60
2022-10-17T01:54:22.031Z,14.53
2022-10-17T01:56:49.930Z,14.52
2022-10-17T01:59:24.086Z,14.52
2022-10-17T02:01:53.049Z,14.45
2022-10-17T02:04:19.865Z,14.46
2022-10-17T02:06:46.447Z,14.45
2022-10-17T02:09:21.955Z,14.40
2022-10-17T02:12:07.338Z,14.42
2022-10-17T02:14:48.908Z,14.38
2022-10-17T02:17:27.916Z,14.38
2022-10-17T02:20:16.628Z,14.35
2022-10-17T02:22:49.479Z,14.27
2022-10-17T02:25:27.837Z,14.35
2022-10-17T02:28:16.619Z,14.32
2022-10-17T02:30:56.165Z,14.32
2022-10-17T02:33:30.691Z,14.32
2022-10-17T02:36:01.422Z,14.31
2022-10-17T02:38:29.282Z,14.28
2022-10-17T02:40:56.172Z,14.30
2022-10-17T02:43:23.751Z,14.28
2022-10-17T02:45:52.822Z,14.34
2022-10-17T02:48:26.831Z,14.34
2022-10-17T02:51:14.566Z,14.37
2022-10-17T02:54:05.169Z,14.38
2022-10-17T02:56:37.534Z,14.37
2022-10-17T02:59:05.780Z,14.37
2022-10-17T03:01:32.446Z,14.38
2022-10-17T03:04:06.821Z,14.39
2022-10-17T03:06:33.366Z,14.39
2022-10-17T03:08:59.901Z,14.35
2022-10-17T03:11:27.481Z,14.40
2022-10-17T03:13:54.063Z,14.41
2022-10-17T03:16:20.690Z,14.39
2022-10-17T03:18:50.003Z,14.44
2022-10-17T03:21:17.047Z,14.44
2022-10-17T03:23:43.617Z,14.50
2022-10-17T03:26:10.863Z,14.55
2022-10-17T03:28:38.365Z,14.61
2022-10-17T03:31:13.731Z,14.66
2022-10-17T03:33:40.645Z,14.60
2022-10-17T03:36:13.563Z,14.64
2022-10-17T03:38:40.491Z,14.74
2022-10-17T03:41:07.816Z,14.77
2022-10-17T03:43:35.681Z,14.80
2022-10-17T03:46:02.591Z,14.81
2022-10-17T03:48:30.047Z,14.80
2022-10-17T03:51:01.531Z,14.88
2022-10-17T03:53:29.072Z,14.84
2022-10-17T03:55:57.368Z,14.90
2022-10-17T03:58:24.107Z,14.83
2022-10-17T04:00:52.526Z,14.89
2022-10-17T04:03:19.170Z,14.90
2022-10-17T04:05:46.723Z,14.93
2022-10-17T04:08:13.313Z,14.96
2022-10-17T04:11:05.090Z,15.00
2022-10-17T04:13:32.027Z,15.01
2022-10-17T04:16:05.016Z,15.01
2022-10-17T04:18:31.771Z,15.03
2022-10-17T04:21:01.657Z,15.06
2022-10-17T04:23:28.355Z,15.01
2022-10-17T04:26:00.512Z,15.07
2022-10-17T04:28:27.934Z,15.06
2022-10-17T04:31:05.480Z,15.02
2022-10-17T04:33:38.783Z,15.03
2022-10-17T04:36:16.599Z,15.02
2022-10-17T04:38:43.150Z,15.02
2022-10-17T04:41:15.438Z,15.02
2022-10-17T04:43:44.407Z,15.01
2022-10-17T04:46:14.880Z,15.00
2022-10-17T04:48:41.735Z,14.99
2022-10-17T04:51:11.616Z,14.97
2022-10-17T04:53:45.990Z,14.97
2022-10-17T04:56:15.112Z,14.96
2022-10-17T04:58:42.428Z,14.91
2022-10-17T05:01:11.764Z,14.90
2022-10-17T05:03:40.548Z,14.89
2022-10-17T05:06:12.389Z,14.89
2022-10-17T05:08:39.237Z,14.81
2022-10-17T05:11:18.140Z,14.84
2022-10-17T05:13:44.931Z,14.84
2022-10-17T05:16:11.594Z,14.86
2022-10-17T05:18:38.133Z,14.83
2022-10-17T05:21:04.823Z,14.85
2022-10-17T05:23:32.952Z,14.82
2022-10-17T05:25:59.629Z,14.81
2022-10-17T05:28:27.023Z,14.81
2022-10-17T05:30:57.090Z,14.82
2022-10-17T05:33:24.153Z,14.80
2022-10-17T05:35:51.487Z,14.72
2022-10-17T05:38:18.063Z,14.76
2022-10-17T05:40:45.304Z,14.72
2022-10-17T05:43:11.917Z,14.71
2022-10-17T05:45:38.647Z,14.76
2022-10-17T05:48:09.137Z,14.77
2022-10-17T05:50:35.972Z,14.75
2022-10-17T05:53:07.985Z,14.77
2022-10-17T05:55:39.563Z,14.78
2022-10-17T05:58:06.567Z,14.78
2022-10-17T06:00:37.542Z,14.80
2022-10-17T06:03:04.642Z,14.78
2022-10-17T06:05:31.196Z,14.79
2022-10-17T06:08:01.040Z,14.80
2022-10-17T06:10:30.562Z,14.81
2022-10-17T06:12:57.664Z,14.81
2022-10-17T06:15:25.434Z,14.80
2022-10-17T06:17:58.475Z,14.83
2022-10-17T06:20:25.072Z,14.82
2022-10-17T06:22:52.342Z,14.86
2022-10-17T06:25:31.825Z,14.80
2022-10-17T06:27:58.439Z,14.81
2022-10-17T06:30:25.046Z,14.87
2022-10-17T06:32:52.458Z,14.87
2022-10-17T06:35:19.798Z,14.89
2022-10-17T06:37:46.974Z,14.94
2022-10-17T06:40:15.263Z,14.91
2022-10-17T06:42:42.075Z,14.86
2022-10-17T06:45:26.394Z,14.91
2022-10-17T06:48:11.526Z,14.97
2022-10-17T06:50:51.735Z,15.03
2022-10-17T06:53:22.208Z,15.03
2022-10-17T06:56:07.129Z,15.04
2022-10-17T06:58:59.798Z,15.08
2022-10-17T07:01:32.380Z,15.12
2022-10-17T07:04:00.467Z,15.13
2022-10-17T07:06:28.597Z,15.20
2022-10-17T07:08:56.921Z,15.18
2022-10-17T07:11:23.492Z,15.28
2022-10-17T07:13:51.962Z,15.29
2022-10-17T07:16:18.525Z,15.30
2022-10-17T07:18:50.770Z,15.31
2022-10-17T07:21:18.670Z,15.39
2022-10-17T07:23:45.223Z,15.27
2022-10-17T07:26:14.091Z,15.30
2022-10-17T07:28:43.084Z,15.46
2022-10-17T07:31:22.907Z,15.44
2022-10-17T07:33:50.007Z,15.59
2022-10-17T07:36:17.026Z,15.69
2022-10-17T07:38:43.688Z,15.69
2022-10-17T07:41:12.174Z,15.71
2022-10-17T07:43:39.098Z,15.69
2022-10-17T07:46:08.436Z,15.78
2022-10-17T07:48:35.376Z,15.98
2022-10-17T07:51:03.187Z,15.91
2022-10-17T07:53:29.711Z,16.08
2022-10-17T07:55:56.249Z,16.16
2022-10-17T07:58:22.803Z,16.19
2022-10-17T08:00:51.098Z,16.30
2022-10-17T08:03:17.799Z,16.38
2022-10-17T08:05:44.381Z,16.55
2022-10-17T08:08:10.915Z,16.58
2022-10-17T08:10:37.458Z,16.67
2022-10-17T08:13:04.055Z,16.77
2022-10-17T08:15:32.130Z,16.80
2022-10-17T08:17:59.363Z,16.99
2022-10-17T08:20:25.905Z,17.16
2022-10-17T08:22:54.318Z,17.44
2022-10-17T08:25:21.153Z,17.46
2022-10-17T08:27:47.711Z,17.58
2022-10-17T08:30:14.279Z,17.87
2022-10-17T08:32:41.031Z,18.02
2022-10-17T08:35:08.909Z,18.38
2022-10-17T08:37:35.522Z,18.68
2022-10-17T08:40:02.067Z,18.77
2022-10-17T08:42:49.339Z,18.81
2022-10-17T08:45:31.039Z,18.97
2022-10-17T08:48:02.796Z,19.46
2022-10-17T08:50:40.126Z,19.70
2022-10-17T08:53:44.437Z,19.84
2022-10-17T08:56:44.523Z,20.34
2022-10-17T08:59:17.208Z,20.85
2022-10-17T09:02:01.429Z,21.08
2022-10-17T09:04:40.673Z,21.51
2022-10-17T09:07:45.023Z,21.52
2022-10-17T09:10:42.706Z,21.32
2022-10-17T09:13:51.031Z,21.35
2022-10-17T09:16:45.394Z,21.88
2022-10-17T09:19:28.861Z,21.90
2022-10-17T09:21:58.995Z,22.21
2022-10-17T09:24:46.491Z,22.34
2022-10-17T09:27:52.731Z,22.43
2022-10-17T09:30:44.102Z,22.59
2022-10-17T09:33:34.482Z,22.77
2022-10-17T09:36:05.556Z,22.84
2022-10-17T09:38:39.966Z,23.33
2022-10-17T09:41:39.235Z,23.66
2022-10-17T09:44:24.183Z,23.92
2022-10-17T09:46:58.195Z,24.26
2022-10-17T09:49:36.395Z,24.40
2022-10-17T09:52:05.508Z,24.67
2022-10-17T09:54:46.303Z,24.72
2022-10-17T09:57:14.278Z,24.64
2022-10-17T09:59:44.255Z,24.70
2022-10-17T10:02:13.732Z,24.50
2022-10-17T10:05:10.054Z,24.72
2022-10-17T10:07:38.703Z,25.13
2022-10-17T10:10:27.618Z,24.64
2022-10-17T10:13:14.428Z,24.88
2022-10-17T10:15:42.831Z,25.18
2022-10-17T10:18:24.863Z,25.47
2022-10-17T10:21:05.331Z,25.50
2022-10-17T10:23:33.563Z,25.65
2022-10-17T10:26:03.204Z,25.22
2022-10-17T10:28:31.912Z,25.45
2022-10-17T10:31:00.884Z,25.39
2022-10-17T10:33:29.347Z,25.57
2022-10-17T10:35:59.449Z,25.77
2022-10-17T10:38:26.105Z,25.13
2022-10-17T10:40:55.277Z,25.38
2022-10-17T10:43:41.546Z,25.51
2022-10-17T10:46:28.218Z,25.96
2022-10-17T10:49:00.270Z,26.17
2022-10-17T10:51:34.267Z,26.04
2022-10-17T10:54:10.701Z,26.09
2022-10-17T10:56:39.219Z,26.22
2022-10-17T10:59:09.331Z,26.46
2022-10-17T11:01:53.998Z,26.36
2022-10-17T11:04:37.771Z,26.31
2022-10-17T11:07:11.480Z,25.99
2022-10-17T11:09:53.132Z,26.11
2022-10-17T11:12:29.364Z,26.08
2022-10-17T11:15:01.788Z,26.14
2022-10-17T11:17:42.854Z,26.07
2022-10-17T11:20:09.294Z,25.68
2022-10-17T11:22:46.677Z,25.23
2022-10-17T11:25:19.881Z,25.18
2022-10-17T11:27:46.522Z,24.88
2022-10-17T11:30:15.149Z,24.79
2022-10-17T11:32:49.210Z,24.65
2022-10-17T11:35:20.684Z,24.71
2022-10-17T11:37:56.638Z,24.71
2022-10-17T11:40:30.010Z,24.82
2022-10-17T11:43:12.419Z,24.66
2022-10-17T11:45:46.436Z,24.70
2022-10-17T11:48:16.593Z,24.71
2022-10-17T11:53:44.777Z,24.71
2022-10-17T11:56:12.368Z,24.76
2022-10-17T11:58:55.183Z,24.67
2022-10-17T12:01:33.465Z,24.70
2022-10-17T12:04:31.162Z,24.84
2022-10-17T12:07:26.044Z,24.86
2022-10-17T12:10:04.255Z,24.53
2022-10-17T12:12:33.491Z,24.56
2022-10-17T12:15:24.322Z,24.60
2022-10-17T12:17:58.374Z,24.68
2022-10-17T12:20:30.535Z,24.70
2022-10-17T12:23:21.361Z,24.71
2022-10-17T12:26:01.140Z,24.74
2022-10-17T12:28:30.635Z,24.86
2022-10-17T12:30:58.426Z,24.89
2022-10-17T12:33:30.895Z,24.79
2022-10-17T12:36:21.116Z,24.82
2022-10-17T12:38:50.380Z,24.91
2022-10-17T12:41:17.246Z,24.73
2022-10-17T12:43:52.495Z,24.68
2022-10-17T12:46:46.633Z,24.86
2022-10-17T12:49:23.951Z,24.89
2022-10-17T12:52:08.858Z,24.99
2022-10-17T12:54:47.502Z,25.00
2022-10-17T12:57:25.072Z,24.95
2022-10-17T12:59:55.607Z,24.91
2022-10-17T13:02:27.545Z,24.87
2022-10-17T13:05:07.790Z,24.89
2022-10-17T13:07:36.273Z,24.81
2022-10-17T13:10:05.271Z,24.91
2022-10-17T13:12:37.658Z,24.88
2022-10-17T13:15:07.842Z,24.92
2022-10-17T13:17:34.892Z,24.97
2022-10-17T13:20:01.912Z,25.01
2022-10-17T13:22:31.172Z,25.07
2022-10-17T13:25:19.523Z,25.00
2022-10-17T13:27:47.747Z,24.91
2022-10-17T13:30:37.757Z,24.87
2022-10-17T13:33:18.180Z,24.85
2022-10-17T13:36:02.318Z,24.85
2022-10-17T13:38:32.672Z,24.83
2022-10-17T13:41:11.019Z,24.84
2022-10-17T13:43:47.127Z,24.91
2022-10-17T13:46:37.384Z,24.89
2022-10-17T13:49:16.917Z,24.97
2022-10-17T13:51:45.705Z,24.91
2022-10-17T13:54:20.034Z,25.00
2022-10-17T13:56:46.726Z,25.07
2022-10-17T13:59:24.149Z,25.04
2022-10-17T14:01:52.226Z,25.11
2022-10-17T14:04:20.460Z,25.01
2022-10-17T14:06:49.587Z,25.02
2022-10-17T14:09:29.218Z,25.01
2022-10-17T14:12:04.613Z,25.01
2022-10-17T14:14:46.100Z,25.05
2022-10-17T14:17:23.969Z,25.01
2022-10-17T14:20:14.083Z,25.12
2022-10-17T14:22:47.274Z,25.16
2022-10-17T14:25:39.095Z,24.95
2022-10-17T14:28:12.520Z,24.93
2022-10-17T14:30:56.427Z,24.96
2022-10-17T14:33:27.532Z,25.01
2022-10-17T14:35:56.817Z,25.05
2022-10-17T14:38:23.618Z,24.97
2022-10-17T14:41:41.873Z,24.96
2022-10-17T14:44:17.481Z,24.97
2022-10-17T14:46:49.594Z,24.78
2022-10-17T14:49:38.528Z,24.77
2022-10-17T14:53:07.702Z,24.80
2022-10-17T14:55:55.605Z,24.68
2022-10-17T14:58:35.670Z,24.45
2022-10-17T15:01:04.255Z,24.55
2022-10-17T15:03:30.930Z,24.58
2022-10-17T15:05:58.396Z,24.49
2022-10-17T15:08:25.040Z,24.46
2022-10-17T15:10:51.627Z,24.49
2022-10-17T15:13:38.677Z,24.52
2022-10-17T15:16:26.001Z,24.41
2022-10-17T15:18:53.438Z,24.25
2022-10-17T15:21:40.837Z,24.27
2022-10-17T15:24:08.935Z,24.28
2022-10-17T15:26:35.673Z,24.07
2022-10-17T15:29:03.807Z,24.02
2022-10-17T15:31:33.790Z,23.96
2022-10-17T15:34:00.427Z,23.97
2022-10-17T15:36:27.788Z,23.88
2022-10-17T15:38:59.940Z,23.67
2022-10-17T15:41:28.878Z,23.68
2022-10-17T15:43:55.642Z,23.64
2022-10-17T15:46:25.286Z,23.52
2022-10-17T15:48:52.952Z,23.46
2022-10-17T15:51:19.718Z,23.26
2022-10-17T15:53:46.297Z,23.20
2022-10-17T15:56:23.166Z,23.21
2022-10-17T15:58:49.814Z,23.20
2022-10-17T16:01:22.636Z,23.12
2022-10-17T16:03:50.617Z,23.08
2022-10-17T16:06:18.760Z,23.01
2022-10-17T16:08:53.802Z,22.96
2022-10-17T16:11:26.377Z,22.87
2022-10-17T16:13:55.375Z,22.81
2022-10-17T16:16:24.885Z,22.72
2022-10-17T16:18:51.670Z,22.64
2022-10-17T16:21:20.085Z,22.55
2022-10-17T16:23:46.884Z,22.45
2022-10-17T16:26:16.061Z,22.35
2022-10-17T16:28:46.272Z,22.27
2022-10-17T16:31:40.797Z,22.16
2022-10-17T16:34:09.069Z,22.08
2022-10-17T16:36:35.799Z,21.98
2022-10-17T16:39:02.583Z,21.89
2022-10-17T16:41:35.034Z,21.80
2022-10-17T16:44:04.169Z,21.71
2022-10-17T16:46:32.285Z,21.62
2022-10-17T16:48:59.050Z,21.56
2022-10-17T16:51:25.966Z,21.53
2022-10-17T16:53:54.533Z,21.43
2022-10-17T16:56:24.941Z,21.35
2022-10-17T16:58:52.221Z,21.30
2022-10-17T17:01:21.444Z,21.24
2022-10-17T17:03:48.367Z,21.21
2022-10-17T17:06:20.782Z,21.14
2022-10-17T17:08:47.997Z,21.13
2022-10-17T17:11:17.023Z,21.08
2022-10-17T17:13:43.936Z,21.02
2022-10-17T17:16:20.281Z,20.96
2022-10-17T17:18:49.403Z,20.91
2022-10-17T17:21:16.168Z,20.84
2022-10-17T17:23:43.472Z,20.80
2022-10-17T17:26:10.115Z,20.75
2022-10-17T17:28:38.762Z,20.69
2022-10-17T17:31:13.373Z,20.64
2022-10-17T17:33:41.154Z,20.59
2022-10-17T17:36:08.880Z,20.54
2022-10-17T17:38:36.391Z,20.48
2022-10-17T17:41:04.516Z,20.43
2022-10-17T17:43:31.827Z,20.38
2022-10-17T17:46:01.418Z,20.32
2022-10-17T17:48:28.188Z,20.29
2022-10-17T17:50:57.243Z,20.23
2022-10-17T17:53:24.397Z,20.21
2022-10-17T17:56:14.384Z,20.17
2022-10-17T17:58:45.715Z,20.10
2022-10-17T18:01:18.895Z,20.11
2022-10-17T18:03:46.340Z,20.06
2022-10-17T18:06:13.696Z,19.97
2022-10-17T18:08:44.169Z,20.00
2022-10-17T18:11:11.345Z,19.96
2022-10-17T18:13:38.274Z,19.93
2022-10-17T18:16:13.272Z,19.86
2022-10-17T18:18:41.738Z,19.84
2022-10-17T18:21:09.780Z,19.80
2022-10-17T18:23:38.909Z,19.76
2022-10-17T18:26:06.538Z,19.73
2022-10-17T18:28:35.616Z,19.69
2022-10-17T18:31:07.096Z,19.66
2022-10-17T18:33:34.378Z,19.64
2022-10-17T18:36:09.948Z,19.59
2022-10-17T18:38:37.527Z,19.55
2022-10-17T18:41:09.901Z,19.50
2022-10-17T18:43:38.261Z,19.48
2022-10-17T18:46:14.971Z,19.43
2022-10-17T18:48:44.632Z,19.40
2022-10-17T18:51:12.884Z,19.37
2022-10-17T18:53:45.521Z,19.34
2022-10-17T18:56:12.967Z,19.30
2022-10-17T18:58:40.779Z,19.27
2022-10-17T19:01:15.614Z,19.24
2022-10-17T19:03:43.691Z,19.22
2022-10-17T19:06:12.304Z,19.19
2022-10-17T19:08:39.708Z,19.17
2022-10-17T19:11:12.723Z,19.14
2022-10-17T19:13:39.909Z,19.10
2022-10-17T19:16:07.955Z,19.06
2022-10-17T19:18:35.728Z,19.03
2022-10-17T19:21:04.314Z,18.98
2022-10-17T19:23:31.114Z,18.94
2022-10-17T19:26:05.900Z,18.90
2022-10-17T19:28:34.253Z,18.87
2022-10-17T19:31:01.165Z,18.84
2022-10-17T19:36:10.569Z,18.79
2022-10-17T19:38:37.953Z,18.78
2022-10-17T19:41:09.728Z,18.76
2022-10-17T19:43:37.811Z,18.73
2022-10-17T19:46:06.862Z,18.69
2022-10-17T19:48:36.846Z,18.65
2022-10-17T19:51:08.146Z,18.62
2022-10-17T19:53:35.544Z,18.57
2022-10-17T19:56:02.639Z,18.55
2022-10-17T19:58:29.569Z,18.49
2022-10-17T20:00:58.152Z,18.45
2022-10-17T20:03:25.531Z,18.42
2022-10-17T20:05:52.499Z,18.42
2022-10-17T20:08:19.602Z,18.40
2022-10-17T20:10:47.089Z,18.36
2022-10-17T20:13:14.464Z,18.32
2022-10-17T20:15:41.239Z,18.28
2022-10-17T20:18:08.850Z,18.28
2022-10-17T20:20:37.087Z,18.26
2022-10-17T20:23:04.444Z,18.24
2022-10-17T20:25:33.481Z,18.20
2022-10-17T20:28:00.582Z,18.19
2022-10-17T20:30:27.451Z,18.16
2022-10-17T20:32:55.637Z,18.13
2022-10-17T20:35:22.849Z,18.12
2022-10-17T20:37:50.047Z,18.07
2022-10-17T20:40:34.039Z,18.05
2022-10-17T20:43:01.386Z,18.02
2022-10-17T20:45:43.605Z,17.98
2022-10-17T20:48:15.850Z,17.98
2022-10-17T20:50:43.816Z,17.96
2022-10-17T20:53:35.315Z,17.95
2022-10-17T20:56:03.696Z,17.92
2022-10-17T20:58:30.556Z,17.90
2022-10-17T21:00:57.365Z,17.86
2022-10-17T21:03:24.514Z,17.83
2022-10-17T21:05:51.327Z,17.79
2022-10-17T21:08:18.007Z,17.78
2022-10-17T21:10:44.686Z,17.76
2022-10-17T21:13:11.374Z,17.73
2022-10-17T21:15:38.141Z,17.71
2022-10-17T21:18:04.782Z,17.67
2022-10-17T21:20:31.533Z,17.63
2022-10-17T21:23:00.435Z,17.64
2022-10-17T21:25:27.224Z,17.62
2022-10-17T21:27:54.153Z,17.60
2022-10-17T21:30:21.791Z,17.57
2022-10-17T21:32:52.089Z,17.55
2022-10-17T21:35:18.992Z,17.52
2022-10-17T21:37:45.697Z,17.51
2022-10-17T21:40:12.795Z,17.48
2022-10-17T21:42:39.477Z,17.45
2022-10-17T21:45:15.127Z,17.40
2022-10-17T21:47:55.059Z,17.38
2022-10-17T21:50:27.822Z,17.34
2022-10-17T21:52:54.709Z,17.34
2022-10-17T21:55:21.478Z,17.32
2022-10-17T21:57:48.126Z,17.30
2022-10-17T22:00:15.013Z,17.28
2022-10-17T22:02:41.837Z,17.25
2022-10-17T22:05:08.823Z,17.25
2022-10-17T22:07:35.512Z,17.24
2022-10-17T22:10:02.835Z,17.23
2022-10-17T22:12:29.765Z,17.23
2022-10-17T22:14:56.584Z,17.23
2022-10-17T22:17:23.362Z,17.23
2022-10-17T22:19:50.046Z,17.23
2022-10-17T22:22:16.727Z,17.24
2022-10-17T22:24:43.371Z,17.23
2022-10-17T22:27:10.545Z,17.23
2022-10-17T22:29:37.234Z,17.23
2022-10-17T22:32:04.114Z,17.23
2022-10-17T22:34:30.787Z,17.23
2022-10-17T22:36:57.503Z,17.23
2022-10-17T22:39:24.259Z,17.23
2022-10-17T22:41:50.888Z,17.21
2022-10-17T22:44:17.543Z,17.22
2022-10-17T22:46:44.287Z,17.21
2022-10-17T22:49:10.940Z,17.22
2022-10-17T22:51:37.608Z,17.22
2022-10-17T22:54:04.345Z,17.20
2022-10-17T22:56:31.014Z,17.22
2022-10-17T22:58:57.662Z,17.21
2022-10-17T23:01:25.381Z,17.21
2022-10-17T23:03:53.079Z,17.23
2022-10-17T23:06:20.641Z,17.23
2022-10-17T23:08:47.923Z,17.23
2022-10-17T23:11:14.840Z,17.21
2022-10-17T23:13:41.574Z,17.19
2022-10-17T23:16:08.624Z,17.20
2022-10-17T23:18:35.367Z,17.18
2022-10-17T23:21:02.002Z,17.12
2022-10-17T23:23:28.656Z,17.16
2022-10-17T23:25:56.491Z,17.14
2022-10-17T23:28:23.213Z,17.18
2022-10-17T23:30:49.889Z,17.20
2022-10-17T23:33:16.700Z,17.18
2022-10-17T23:35:43.450Z,17.19
2022-10-17T23:38:11.113Z,17.21
2022-10-17T23:40:37.954Z,17.18
2022-10-17T23:43:04.979Z,17.20
2022-10-17T23:45:36.134Z,17.24
2022-10-17T23:48:04.938Z,17.22
2022-10-17T23:50:31.620Z,17.27
2022-10-17T23:52:58.287Z,17.29
2022-10-17T23:55:24.949Z,17.30
2022-10-17T23:57:51.651Z,17.29
